sensor_id;sensor_type;location;lat;lon;timestamp;temperature;humidity
13052;DHT22;6592;47.484;9.726;2022-08-05T00:02:20;25.60;82.50
13052;DHT22;6592;47.484;9.726;2022-08-05T00:04:49;25.70;82.80
13052;DHT22;6592;47.484;9.726;2022-08-05T00:07:21;25.70;84.20
13052;DHT22;6592;47.484;9.726;2022-08-05T00:10:09;25.60;84.00
13052;DHT22;6592;47.484;9.726;2022-08-05T00:12:40;25.50;84.20
13052;DHT22;6592;47.484;9.726;2022-08-05T00:15:23;25.50;85.10
13052;DHT22;6592;47.484;9.726;2022-08-05T00:18:11;25.40;85.20
13052;DHT22;6592;47.484;9.726;2022-08-05T00:20:48;25.20;86.00
13052;DHT22;6592;47.484;9.726;2022-08-05T00:23:16;25.20;86.00
13052;DHT22;6592;47.484;9.726;2022-08-05T00:26:04;25.20;86.50
13052;DHT22;6592;47.484;9.726;2022-08-05T00:28:33;25.10;86.80
13052;DHT22;6592;47.484;9.726;2022-08-05T00:31:03;25.00;87.10
13052;DHT22;6592;47.484;9.726;2022-08-05T00:33:33;25.00;87.20
13052;DHT22;6592;47.484;9.726;2022-08-05T00:36:21;25.10;86.70
13052;DHT22;6592;47.484;9.726;2022-08-05T00:39:10;25.10;87.30
13052;DHT22;6592;47.484;9.726;2022-08-05T00:41:39;25.00;87.90
13052;DHT22;6592;47.484;9.726;2022-08-05T00:44:17;24.90;89.00
13052;DHT22;6592;47.484;9.726;2022-08-05T00:46:50;24.70;89.90
13052;DHT22;6592;47.484;9.726;2022-08-05T00:49:27;24.70;89.20
13052;DHT22;6592;47.484;9.726;2022-08-05T00:52:10;24.70;89.40
13052;DHT22;6592;47.484;9.726;2022-08-05T00:54:38;24.70;89.50
13052;DHT22;6592;47.484;9.726;2022-08-05T00:57:08;24.70;90.00
13052;DHT22;6592;47.484;9.726;2022-08-05T00:59:36;24.70;89.60
13052;DHT22;6592;47.484;9.726;2022-08-05T01:02:12;24.70;89.20
13052;DHT22;6592;47.484;9.726;2022-08-05T01:04:42;24.70;90.10
13052;DHT22;6592;47.484;9.726;2022-08-05T01:07:15;24.70;89.40
13052;DHT22;6592;47.484;9.726;2022-08-05T01:09:43;24.80;89.40
13052;DHT22;6592;47.484;9.726;2022-08-05T01:12:21;24.80;89.50
13052;DHT22;6592;47.484;9.726;2022-08-05T01:14:56;24.90;90.00
13052;DHT22;6592;47.484;9.726;2022-08-05T01:17:33;24.80;90.40
13052;DHT22;6592;47.484;9.726;2022-08-05T01:20:10;24.80;90.40
13052;DHT22;6592;47.484;9.726;2022-08-05T01:22:44;24.70;90.50
13052;DHT22;6592;47.484;9.726;2022-08-05T01:25:27;24.80;90.30
13052;DHT22;6592;47.484;9.726;2022-08-05T01:28:19;24.90;90.20
13052;DHT22;6592;47.484;9.726;2022-08-05T01:30:50;24.90;90.20
13052;DHT22;6592;47.484;9.726;2022-08-05T01:33:22;24.90;90.30
13052;DHT22;6592;47.484;9.726;2022-08-05T01:35:51;24.90;90.30
13052;DHT22;6592;47.484;9.726;2022-08-05T01:38:23;24.90;90.40
13052;DHT22;6592;47.484;9.726;2022-08-05T01:40:56;24.90;90.80
13052;DHT22;6592;47.484;9.726;2022-08-05T01:43:28;24.90;91.00
13052;DHT22;6592;47.484;9.726;2022-08-05T01:45:57;24.90;91.10
13052;DHT22;6592;47.484;9.726;2022-08-05T01:48:41;24.90;91.30
13052;DHT22;6592;47.484;9.726;2022-08-05T01:51:15;24.90;91.60
13052;DHT22;6592;47.484;9.726;2022-08-05T01:53:45;24.80;91.60
13052;DHT22;6592;47.484;9.726;2022-08-05T01:56:25;24.70;91.80
13052;DHT22;6592;47.484;9.726;2022-08-05T01:59:17;24.60;92.40
13052;DHT22;6592;47.484;9.726;2022-08-05T02:01:46;24.50;92.70
13052;DHT22;6592;47.484;9.726;2022-08-05T02:04:15;24.50;92.80
13052;DHT22;6592;47.484;9.726;2022-08-05T02:06:45;24.50;93.00
13052;DHT22;6592;47.484;9.726;2022-08-05T02:09:13;24.50;93.10
13052;DHT22;6592;47.484;9.726;2022-08-05T02:11:46;24.40;93.10
13052;DHT22;6592;47.484;9.726;2022-08-05T02:14:21;24.50;93.30
13052;DHT22;6592;47.484;9.726;2022-08-05T02:16:58;24.50;93.10
13052;DHT22;6592;47.484;9.726;2022-08-05T02:19:32;24.50;93.00
13052;DHT22;6592;47.484;9.726;2022-08-05T02:22:15;24.60;93.20
13052;DHT22;6592;47.484;9.726;2022-08-05T02:24:54;24.60;93.50
13052;DHT22;6592;47.484;9.726;2022-08-05T02:27:25;24.60;93.50
13052;DHT22;6592;47.484;9.726;2022-08-05T02:30:16;24.60;94.00
13052;DHT22;6592;47.484;9.726;2022-08-05T02:32:45;24.50;94.30
13052;DHT22;6592;47.484;9.726;2022-08-05T02:35:20;24.50;94.40
13052;DHT22;6592;47.484;9.726;2022-08-05T02:37:59;24.50;94.10
13052;DHT22;6592;47.484;9.726;2022-08-05T02:40:28;24.60;94.20
13052;DHT22;6592;47.484;9.726;2022-08-05T02:42:56;24.60;94.50
13052;DHT22;6592;47.484;9.726;2022-08-05T02:45:27;24.70;94.90
13052;DHT22;6592;47.484;9.726;2022-08-05T02:48:15;24.70;95.30
13052;DHT22;6592;47.484;9.726;2022-08-05T02:50:43;24.70;95.60
13052;DHT22;6592;47.484;9.726;2022-08-05T02:53:15;24.60;95.90
13052;DHT22;6592;47.484;9.726;2022-08-05T02:55:45;24.60;96.60
13052;DHT22;6592;47.484;9.726;2022-08-05T02:58:25;24.60;97.50
13052;DHT22;6592;47.484;9.726;2022-08-05T03:00:57;24.50;97.50
13052;DHT22;6592;47.484;9.726;2022-08-05T03:03:27;24.50;97.80
13052;DHT22;6592;47.484;9.726;2022-08-05T03:06:16;24.50;98.30
13052;DHT22;6592;47.484;9.726;2022-08-05T03:09:04;24.50;98.40
13052;DHT22;6592;47.484;9.726;2022-08-05T03:11:33;24.50;98.90
13052;DHT22;6592;47.484;9.726;2022-08-05T03:14:21;24.50;99.10
13052;DHT22;6592;47.484;9.726;2022-08-05T03:16:53;24.40;99.60
13052;DHT22;6592;47.484;9.726;2022-08-05T03:19:21;24.40;99.90
13052;DHT22;6592;47.484;9.726;2022-08-05T03:22:01;24.40;99.90
13052;DHT22;6592;47.484;9.726;2022-08-05T03:24:30;24.40;99.90
13052;DHT22;6592;47.484;9.726;2022-08-05T03:27:00;24.40;99.90
13052;DHT22;6592;47.484;9.726;2022-08-05T03:29:32;24.40;99.90
13052;DHT22;6592;47.484;9.726;2022-08-05T03:32:21;24.50;99.90
13052;DHT22;6592;47.484;9.726;2022-08-05T03:34:56;24.50;99.90
13052;DHT22;6592;47.484;9.726;2022-08-05T03:37:26;24.40;99.90
13052;DHT22;6592;47.484;9.726;2022-08-05T03:39:54;24.40;99.90
13052;DHT22;6592;47.484;9.726;2022-08-05T03:42:27;24.30;99.90
13052;DHT22;6592;47.484;9.726;2022-08-05T03:44:58;24.30;99.90
13052;DHT22;6592;47.484;9.726;2022-08-05T03:47:30;24.20;99.90
13052;DHT22;6592;47.484;9.726;2022-08-05T03:50:06;24.10;99.90
13052;DHT22;6592;47.484;9.726;2022-08-05T03:52:37;24.10;99.90
13052;DHT22;6592;47.484;9.726;2022-08-05T03:55:34;24.10;99.90
13052;DHT22;6592;47.484;9.726;2022-08-05T03:58:23;24.10;99.90
13052;DHT22;6592;47.484;9.726;2022-08-05T04:00:54;24.00;99.90
13052;DHT22;6592;47.484;9.726;2022-08-05T04:03:26;24.00;99.90
13052;DHT22;6592;47.484;9.726;2022-08-05T04:05:55;24.00;99.90
13052;DHT22;6592;47.484;9.726;2022-08-05T04:08:24;23.90;99.90
13052;DHT22;6592;47.484;9.726;2022-08-05T04:11:02;23.90;99.90
13052;DHT22;6592;47.484;9.726;2022-08-05T04:13:34;23.90;99.90
13052;DHT22;6592;47.484;9.726;2022-08-05T04:16:17;23.90;99.90
13052;DHT22;6592;47.484;9.726;2022-08-05T04:18:59;23.80;99.90
13052;DHT22;6592;47.484;9.726;2022-08-05T04:21:27;23.70;99.90
13052;DHT22;6592;47.484;9.726;2022-08-05T04:24:15;23.70;99.90
13052;DHT22;6592;47.484;9.726;2022-08-05T04:26:48;23.70;99.90
13052;DHT22;6592;47.484;9.726;2022-08-05T04:29:16;23.60;99.90
13052;DHT22;6592;47.484;9.726;2022-08-05T04:31:45;23.60;99.90
13052;DHT22;6592;47.484;9.726;2022-08-05T04:34:15;23.50;99.90
13052;DHT22;6592;47.484;9.726;2022-08-05T04:36:59;23.50;99.90
13052;DHT22;6592;47.484;9.726;2022-08-05T04:39:28;23.50;99.90
13052;DHT22;6592;47.484;9.726;2022-08-05T04:41:57;23.50;99.90
13052;DHT22;6592;47.484;9.726;2022-08-05T04:44:27;23.50;99.90
13052;DHT22;6592;47.484;9.726;2022-08-05T04:46:56;23.60;99.90
13052;DHT22;6592;47.484;9.726;2022-08-05T04:49:26;23.60;99.90
13052;DHT22;6592;47.484;9.726;2022-08-05T04:52:14;23.60;99.90
13052;DHT22;6592;47.484;9.726;2022-08-05T04:54:44;23.60;99.90
13052;DHT22;6592;47.484;9.726;2022-08-05T04:57:14;23.60;99.90
13052;DHT22;6592;47.484;9.726;2022-08-05T04:59:42;23.60;99.90
13052;DHT22;6592;47.484;9.726;2022-08-05T05:02:13;23.70;99.90
13052;DHT22;6592;47.484;9.726;2022-08-05T05:05:03;23.70;99.90
13052;DHT22;6592;47.484;9.726;2022-08-05T05:07:51;23.80;99.90
13052;DHT22;6592;47.484;9.726;2022-08-05T05:10:26;23.80;99.90
13052;DHT22;6592;47.484;9.726;2022-08-05T05:12:55;23.90;99.90
13052;DHT22;6592;47.484;9.726;2022-08-05T05:15:23;23.90;99.90
13052;DHT22;6592;47.484;9.726;2022-08-05T05:18:11;23.90;99.90
13052;DHT22;6592;47.484;9.726;2022-08-05T05:20:42;24.00;99.90
13052;DHT22;6592;47.484;9.726;2022-08-05T05:23:11;24.00;99.90
13052;DHT22;6592;47.484;9.726;2022-08-05T05:25:45;24.00;99.90
13052;DHT22;6592;47.484;9.726;2022-08-05T05:28:13;24.10;99.90
13052;DHT22;6592;47.484;9.726;2022-08-05T05:30:41;24.10;99.90
13052;DHT22;6592;47.484;9.726;2022-08-05T05:33:15;24.20;99.90
13052;DHT22;6592;47.484;9.726;2022-08-05T05:35:50;24.20;99.90
13052;DHT22;6592;47.484;9.726;2022-08-05T05:38:18;24.20;99.90
13052;DHT22;6592;47.484;9.726;2022-08-05T05:40:53;24.30;99.90
13052;DHT22;6592;47.484;9.726;2022-08-05T05:43:21;24.30;99.90
13052;DHT22;6592;47.484;9.726;2022-08-05T05:46:09;24.40;99.90
13052;DHT22;6592;47.484;9.726;2022-08-05T05:48:43;24.50;99.90
13052;DHT22;6592;47.484;9.726;2022-08-05T05:51:19;24.60;99.90
13052;DHT22;6592;47.484;9.726;2022-08-05T05:53:47;24.70;99.90
13052;DHT22;6592;47.484;9.726;2022-08-05T05:56:25;24.90;99.90
13052;DHT22;6592;47.484;9.726;2022-08-05T05:59:00;25.00;99.90
13052;DHT22;6592;47.484;9.726;2022-08-05T06:01:29;25.00;99.90
13052;DHT22;6592;47.484;9.726;2022-08-05T06:04:04;25.00;99.90
13052;DHT22;6592;47.484;9.726;2022-08-05T06:06:34;25.10;99.90
13052;DHT22;6592;47.484;9.726;2022-08-05T06:09:07;25.20;99.90
13052;DHT22;6592;47.484;9.726;2022-08-05T06:11:43;25.30;99.90
13052;DHT22;6592;47.484;9.726;2022-08-05T06:14:27;25.40;99.90
13052;DHT22;6592;47.484;9.726;2022-08-05T06:16:55;25.50;99.90
13052;DHT22;6592;47.484;9.726;2022-08-05T06:19:23;25.60;99.90
13052;DHT22;6592;47.484;9.726;2022-08-05T06:22:02;25.80;99.90
13052;DHT22;6592;47.484;9.726;2022-08-05T06:24:32;25.90;99.90
13052;DHT22;6592;47.484;9.726;2022-08-05T06:27:00;25.90;99.90
13052;DHT22;6592;47.484;9.726;2022-08-05T06:29:29;26.10;99.90
13052;DHT22;6592;47.484;9.726;2022-08-05T06:32:17;26.10;99.90
13052;DHT22;6592;47.484;9.726;2022-08-05T06:34:54;26.10;99.90
13052;DHT22;6592;47.484;9.726;2022-08-05T06:37:25;26.20;99.90
13052;DHT22;6592;47.484;9.726;2022-08-05T06:40:13;26.20;99.90
13052;DHT22;6592;47.484;9.726;2022-08-05T06:42:47;26.40;99.90
13052;DHT22;6592;47.484;9.726;2022-08-05T06:45:18;26.70;99.90
13052;DHT22;6592;47.484;9.726;2022-08-05T06:48:06;26.80;99.90
13052;DHT22;6592;47.484;9.726;2022-08-05T06:50:54;27.10;99.90
13052;DHT22;6592;47.484;9.726;2022-08-05T06:53:24;27.20;99.90
13052;DHT22;6592;47.484;9.726;2022-08-05T06:55:54;27.30;99.90
13052;DHT22;6592;47.484;9.726;2022-08-05T06:58:22;27.40;99.90
13052;DHT22;6592;47.484;9.726;2022-08-05T07:01:02;27.40;99.90
13052;DHT22;6592;47.484;9.726;2022-08-05T07:03:31;27.50;99.90
13052;DHT22;6592;47.484;9.726;2022-08-05T07:05:59;27.60;99.90
13052;DHT22;6592;47.484;9.726;2022-08-05T07:08:41;27.70;99.90
13052;DHT22;6592;47.484;9.726;2022-08-05T07:11:13;27.70;99.90
13052;DHT22;6592;47.484;9.726;2022-08-05T07:13:41;27.80;99.90
13052;DHT22;6592;47.484;9.726;2022-08-05T07:16:26;27.90;99.90
13052;DHT22;6592;47.484;9.726;2022-08-05T07:19:32;27.90;99.90
13052;DHT22;6592;47.484;9.726;2022-08-05T07:22:20;28.20;99.90
13052;DHT22;6592;47.484;9.726;2022-08-05T07:24:57;28.60;99.90
13052;DHT22;6592;47.484;9.726;2022-08-05T07:27:45;29.10;99.90
13052;DHT22;6592;47.484;9.726;2022-08-05T07:30:29;29.90;99.90
13052;DHT22;6592;47.484;9.726;2022-08-05T07:33:00;31.10;99.90
13052;DHT22;6592;47.484;9.726;2022-08-05T07:35:35;32.20;99.90
13052;DHT22;6592;47.484;9.726;2022-08-05T07:38:23;32.80;99.90
13052;DHT22;6592;47.484;9.726;2022-08-05T07:41:05;33.80;99.30
13052;DHT22;6592;47.484;9.726;2022-08-05T07:43:54;35.00;97.20
13052;DHT22;6592;47.484;9.726;2022-08-05T07:46:23;36.60;93.00
13052;DHT22;6592;47.484;9.726;2022-08-05T07:48:52;37.80;90.30
13052;DHT22;6592;47.484;9.726;2022-08-05T07:51:31;38.90;81.30
13052;DHT22;6592;47.484;9.726;2022-08-05T07:54:07;39.90;75.20
13052;DHT22;6592;47.484;9.726;2022-08-05T07:56:39;40.70;69.30
13052;DHT22;6592;47.484;9.726;2022-08-05T07:59:27;40.50;65.40
13052;DHT22;6592;47.484;9.726;2022-08-05T08:02:06;39.20;68.20
13052;DHT22;6592;47.484;9.726;2022-08-05T08:04:43;36.80;76.10
13052;DHT22;6592;47.484;9.726;2022-08-05T08:07:11;35.10;80.00
13052;DHT22;6592;47.484;9.726;2022-08-05T08:09:40;33.50;84.20
13052;DHT22;6592;47.484;9.726;2022-08-05T08:12:10;32.50;87.90
13052;DHT22;6592;47.484;9.726;2022-08-05T08:14:59;31.50;91.20
13052;DHT22;6592;47.484;9.726;2022-08-05T08:17:29;30.80;92.30
13052;DHT22;6592;47.484;9.726;2022-08-05T08:19:57;30.60;93.40
13052;DHT22;6592;47.484;9.726;2022-08-05T08:22:49;30.20;93.70
13052;DHT22;6592;47.484;9.726;2022-08-05T08:25:17;29.80;94.80
13052;DHT22;6592;47.484;9.726;2022-08-05T08:28:07;29.60;94.90
13052;DHT22;6592;47.484;9.726;2022-08-05T08:30:44;30.30;96.20
13052;DHT22;6592;47.484;9.726;2022-08-05T08:33:15;31.70;95.20
13052;DHT22;6592;47.484;9.726;2022-08-05T08:35:45;32.50;93.20
13052;DHT22;6592;47.484;9.726;2022-08-05T08:38:20;31.90;93.30
13052;DHT22;6592;47.484;9.726;2022-08-05T08:41:03;31.40;94.70
13052;DHT22;6592;47.484;9.726;2022-08-05T08:43:33;31.10;95.50
13052;DHT22;6592;47.484;9.726;2022-08-05T08:46:22;31.70;94.70
13052;DHT22;6592;47.484;9.726;2022-08-05T08:48:51;32.70;93.20
13052;DHT22;6592;47.484;9.726;2022-08-05T08:51:41;33.40;92.20
13052;DHT22;6592;47.484;9.726;2022-08-05T08:54:29;34.50;90.40
13052;DHT22;6592;47.484;9.726;2022-08-05T08:56:58;35.10;89.40
13052;DHT22;6592;47.484;9.726;2022-08-05T08:59:27;35.60;87.20
13052;DHT22;6592;47.484;9.726;2022-08-05T09:01:59;36.20;84.20
13052;DHT22;6592;47.484;9.726;2022-08-05T09:04:27;37.10;82.90
13052;DHT22;6592;47.484;9.726;2022-08-05T09:06:56;37.80;80.50
13052;DHT22;6592;47.484;9.726;2022-08-05T09:09:24;38.60;75.90
13052;DHT22;6592;47.484;9.726;2022-08-05T09:12:03;39.60;73.40
13052;DHT22;6592;47.484;9.726;2022-08-05T09:14:53;40.10;66.30
13052;DHT22;6592;47.484;9.726;2022-08-05T09:17:31;41.20;66.20
13052;DHT22;6592;47.484;9.726;2022-08-05T09:20:09;41.40;65.50
13052;DHT22;6592;47.484;9.726;2022-08-05T09:25:33;42.00;62.70
13052;DHT22;6592;47.484;9.726;2022-08-05T09:28:22;42.60;61.70
13052;DHT22;6592;47.484;9.726;2022-08-05T09:31:01;43.10;59.60
13052;DHT22;6592;47.484;9.726;2022-08-05T09:33:51;43.70;57.90
13052;DHT22;6592;47.484;9.726;2022-08-05T09:36:20;43.80;55.10
13052;DHT22;6592;47.484;9.726;2022-08-05T09:38:59;44.00;55.90
13052;DHT22;6592;47.484;9.726;2022-08-05T09:41:28;44.00;54.30
13052;DHT22;6592;47.484;9.726;2022-08-05T09:44:03;44.20;53.80
13052;DHT22;6592;47.484;9.726;2022-08-05T09:46:33;44.30;51.30
13052;DHT22;6592;47.484;9.726;2022-08-05T09:49:01;44.60;52.20
13052;DHT22;6592;47.484;9.726;2022-08-05T09:51:45;44.90;50.80
13052;DHT22;6592;47.484;9.726;2022-08-05T09:54:16;45.20;50.00
13052;DHT22;6592;47.484;9.726;2022-08-05T09:56:55;45.50;49.30
13052;DHT22;6592;47.484;9.726;2022-08-05T09:59:27;45.80;49.40
13052;DHT22;6592;47.484;9.726;2022-08-05T10:02:04;45.60;48.80
13052;DHT22;6592;47.484;9.726;2022-08-05T10:04:33;45.80;48.20
13052;DHT22;6592;47.484;9.726;2022-08-05T10:07:04;45.70;47.60
13052;DHT22;6592;47.484;9.726;2022-08-05T10:09:53;45.30;46.80
13052;DHT22;6592;47.484;9.726;2022-08-05T10:12:41;44.70;46.80
13052;DHT22;6592;47.484;9.726;2022-08-05T10:15:22;44.50;47.60
13052;DHT22;6592;47.484;9.726;2022-08-05T10:18:03;44.00;47.70
13052;DHT22;6592;47.484;9.726;2022-08-05T10:20:33;43.50;49.60
13052;DHT22;6592;47.484;9.726;2022-08-05T10:23:01;43.30;48.20
13052;DHT22;6592;47.484;9.726;2022-08-05T10:25:34;43.20;48.90
13052;DHT22;6592;47.484;9.726;2022-08-05T10:28:02;43.20;48.70
13052;DHT22;6592;47.484;9.726;2022-08-05T10:30:43;43.30;47.70
13052;DHT22;6592;47.484;9.726;2022-08-05T10:33:33;43.70;50.40
13052;DHT22;6592;47.484;9.726;2022-08-05T10:36:02;44.00;49.50
13052;DHT22;6592;47.484;9.726;2022-08-05T10:38:31;44.40;49.50
13052;DHT22;6592;47.484;9.726;2022-08-05T10:41:01;44.60;49.60
13052;DHT22;6592;47.484;9.726;2022-08-05T10:43:34;45.00;49.20
13052;DHT22;6592;47.484;9.726;2022-08-05T10:46:04;45.00;48.20
13052;DHT22;6592;47.484;9.726;2022-08-05T10:48:35;45.30;45.30
13052;DHT22;6592;47.484;9.726;2022-08-05T10:51:23;45.20;44.90
13052;DHT22;6592;47.484;9.726;2022-08-05T10:53:55;45.20;44.70
13052;DHT22;6592;47.484;9.726;2022-08-05T10:56:36;44.40;46.80
13052;DHT22;6592;47.484;9.726;2022-08-05T10:59:10;44.10;47.40
13052;DHT22;6592;47.484;9.726;2022-08-05T11:02:05;43.60;46.20
13052;DHT22;6592;47.484;9.726;2022-08-05T11:04:45;42.90;45.90
13052;DHT22;6592;47.484;9.726;2022-08-05T11:07:13;42.30;46.70
13052;DHT22;6592;47.484;9.726;2022-08-05T11:09:58;40.90;49.60
13052;DHT22;6592;47.484;9.726;2022-08-05T11:12:41;40.50;50.10
13052;DHT22;6592;47.484;9.726;2022-08-05T11:15:22;40.60;51.50
13052;DHT22;6592;47.484;9.726;2022-08-05T11:21:01;40.90;51.20
13052;DHT22;6592;47.484;9.726;2022-08-05T11:23:40;40.80;52.60
13052;DHT22;6592;47.484;9.726;2022-08-05T11:26:29;40.70;51.00
13052;DHT22;6592;47.484;9.726;2022-08-05T11:28:59;40.20;50.30
13052;DHT22;6592;47.484;9.726;2022-08-05T11:31:39;39.80;50.60
13052;DHT22;6592;47.484;9.726;2022-08-05T11:34:36;39.40;50.50
13052;DHT22;6592;47.484;9.726;2022-08-05T11:37:06;38.80;52.00
13052;DHT22;6592;47.484;9.726;2022-08-05T11:39:54;38.30;53.10
13052;DHT22;6592;47.484;9.726;2022-08-05T11:42:29;38.00;54.50
13052;DHT22;6592;47.484;9.726;2022-08-05T11:45:04;37.90;54.00
13052;DHT22;6592;47.484;9.726;2022-08-05T11:47:52;38.10;55.50
13052;DHT22;6592;47.484;9.726;2022-08-05T11:50:21;38.80;52.20
13052;DHT22;6592;47.484;9.726;2022-08-05T11:52:52;38.90;51.20
13052;DHT22;6592;47.484;9.726;2022-08-05T11:55:24;39.00;52.90
13052;DHT22;6592;47.484;9.726;2022-08-05T11:58:01;39.30;54.20
13052;DHT22;6592;47.484;9.726;2022-08-05T12:00:37;39.70;51.20
13052;DHT22;6592;47.484;9.726;2022-08-05T12:05:58;40.40;49.80
13052;DHT22;6592;47.484;9.726;2022-08-05T12:08:28;40.00;49.60
13052;DHT22;6592;47.484;9.726;2022-08-05T12:10:58;39.80;50.70
13052;DHT22;6592;47.484;9.726;2022-08-05T12:13:31;39.80;50.20
13052;DHT22;6592;47.484;9.726;2022-08-05T12:16:18;39.90;52.30
13052;DHT22;6592;47.484;9.726;2022-08-05T12:18:51;40.00;51.80
13052;DHT22;6592;47.484;9.726;2022-08-05T12:21:20;40.20;49.70
13052;DHT22;6592;47.484;9.726;2022-08-05T12:24:01;40.30;50.90
13052;DHT22;6592;47.484;9.726;2022-08-05T12:26:32;40.20;50.80
13052;DHT22;6592;47.484;9.726;2022-08-05T12:29:02;40.20;51.10
13052;DHT22;6592;47.484;9.726;2022-08-05T12:31:35;40.40;51.10
13052;DHT22;6592;47.484;9.726;2022-08-05T12:34:14;40.50;50.00
13052;DHT22;6592;47.484;9.726;2022-08-05T12:36:49;40.40;51.60
13052;DHT22;6592;47.484;9.726;2022-08-05T12:39:20;40.40;51.40
13052;DHT22;6592;47.484;9.726;2022-08-05T12:41:56;40.40;53.10
13052;DHT22;6592;47.484;9.726;2022-08-05T12:44:24;40.50;54.70
13052;DHT22;6592;47.484;9.726;2022-08-05T12:46:59;40.90;53.30
13052;DHT22;6592;47.484;9.726;2022-08-05T12:49:39;41.10;52.10
13052;DHT22;6592;47.484;9.726;2022-08-05T12:52:27;41.60;51.50
13052;DHT22;6592;47.484;9.726;2022-08-05T12:55:16;42.10;50.00
13052;DHT22;6592;47.484;9.726;2022-08-05T12:57:49;42.20;50.70
13052;DHT22;6592;47.484;9.726;2022-08-05T13:00:40;42.30;50.00
13052;DHT22;6592;47.484;9.726;2022-08-05T13:03:28;42.70;51.70
13052;DHT22;6592;47.484;9.726;2022-08-05T13:05:58;42.90;51.30
13052;DHT22;6592;47.484;9.726;2022-08-05T13:08:27;42.80;49.70
13052;DHT22;6592;47.484;9.726;2022-08-05T13:10:59;43.10;49.30
13052;DHT22;6592;47.484;9.726;2022-08-05T13:13:29;43.20;49.00
13052;DHT22;6592;47.484;9.726;2022-08-05T13:16:17;43.60;49.80
13052;DHT22;6592;47.484;9.726;2022-08-05T13:18:50;43.80;49.30
13052;DHT22;6592;47.484;9.726;2022-08-05T13:21:24;43.80;48.50
13052;DHT22;6592;47.484;9.726;2022-08-05T13:24:03;44.00;48.80
13052;DHT22;6592;47.484;9.726;2022-08-05T13:26:35;44.10;49.40
13052;DHT22;6592;47.484;9.726;2022-08-05T13:29:06;44.10;48.20
13052;DHT22;6592;47.484;9.726;2022-08-05T13:31:35;44.10;47.70
13052;DHT22;6592;47.484;9.726;2022-08-05T13:34:23;44.20;48.60
13052;DHT22;6592;47.484;9.726;2022-08-05T13:36:52;43.70;46.80
13052;DHT22;6592;47.484;9.726;2022-08-05T13:39:20;43.80;48.30
13052;DHT22;6592;47.484;9.726;2022-08-05T13:42:09;43.60;47.50
13052;DHT22;6592;47.484;9.726;2022-08-05T13:44:40;43.70;47.30
13052;DHT22;6592;47.484;9.726;2022-08-05T13:47:12;43.50;49.80
13052;DHT22;6592;47.484;9.726;2022-08-05T13:50:00;43.20;48.20
13052;DHT22;6592;47.484;9.726;2022-08-05T13:52:30;42.90;49.40
13052;DHT22;6592;47.484;9.726;2022-08-05T13:55:01;42.50;50.40
13052;DHT22;6592;47.484;9.726;2022-08-05T13:57:36;42.00;50.30
13052;DHT22;6592;47.484;9.726;2022-08-05T14:00:17;41.60;51.30
13052;DHT22;6592;47.484;9.726;2022-08-05T14:02:53;41.10;52.60
13052;DHT22;6592;47.484;9.726;2022-08-05T14:05:22;40.60;51.70
13052;DHT22;6592;47.484;9.726;2022-08-05T14:08:09;40.10;53.00
13052;DHT22;6592;47.484;9.726;2022-08-05T14:10:53;39.60;54.70
13052;DHT22;6592;47.484;9.726;2022-08-05T14:13:42;39.40;54.20
13052;DHT22;6592;47.484;9.726;2022-08-05T14:16:14;39.10;53.30
13052;DHT22;6592;47.484;9.726;2022-08-05T14:18:42;38.90;54.10
13052;DHT22;6592;47.484;9.726;2022-08-05T14:21:10;38.70;55.00
13052;DHT22;6592;47.484;9.726;2022-08-05T14:23:58;38.50;54.10
13052;DHT22;6592;47.484;9.726;2022-08-05T14:26:26;38.20;55.50
13052;DHT22;6592;47.484;9.726;2022-08-05T14:29:10;37.90;55.10
13052;DHT22;6592;47.484;9.726;2022-08-05T14:31:42;37.60;54.70
13052;DHT22;6592;47.484;9.726;2022-08-05T14:34:30;37.50;54.00
13052;DHT22;6592;47.484;9.726;2022-08-05T14:37:01;37.30;54.00
13052;DHT22;6592;47.484;9.726;2022-08-05T14:39:29;37.10;53.30
13052;DHT22;6592;47.484;9.726;2022-08-05T14:42:17;37.00;53.90
13052;DHT22;6592;47.484;9.726;2022-08-05T14:44:48;37.00;54.20
13052;DHT22;6592;47.484;9.726;2022-08-05T14:47:17;36.80;54.00
13052;DHT22;6592;47.484;9.726;2022-08-05T14:50:05;36.90;53.60
13052;DHT22;6592;47.484;9.726;2022-08-05T14:52:44;36.70;53.40
13052;DHT22;6592;47.484;9.726;2022-08-05T14:55:24;36.50;54.30
13052;DHT22;6592;47.484;9.726;2022-08-05T14:58:05;36.40;54.40
13052;DHT22;6592;47.484;9.726;2022-08-05T15:00:40;36.20;54.70
13052;DHT22;6592;47.484;9.726;2022-08-05T15:03:25;36.00;55.20
13052;DHT22;6592;47.484;9.726;2022-08-05T15:06:04;36.00;55.10
13052;DHT22;6592;47.484;9.726;2022-08-05T15:08:41;35.80;54.60
13052;DHT22;6592;47.484;9.726;2022-08-05T15:11:29;35.80;54.30
13052;DHT22;6592;47.484;9.726;2022-08-05T15:14:17;35.60;52.30
13052;DHT22;6592;47.484;9.726;2022-08-05T15:17:07;35.20;52.60
13052;DHT22;6592;47.484;9.726;2022-08-05T15:19:55;35.20;53.30
13052;DHT22;6592;47.484;9.726;2022-08-05T15:22:23;35.00;54.80
13052;DHT22;6592;47.484;9.726;2022-08-05T15:24:53;34.80;56.50
13052;DHT22;6592;47.484;9.726;2022-08-05T15:27:21;34.70;57.80
13052;DHT22;6592;47.484;9.726;2022-08-05T15:29:51;34.50;58.70
13052;DHT22;6592;47.484;9.726;2022-08-05T15:32:23;34.30;59.60
13052;DHT22;6592;47.484;9.726;2022-08-05T15:34:54;34.20;61.20
13052;DHT22;6592;47.484;9.726;2022-08-05T15:37:22;34.10;63.90
13052;DHT22;6592;47.484;9.726;2022-08-05T15:40:10;33.90;64.30
13052;DHT22;6592;47.484;9.726;2022-08-05T15:42:58;33.90;64.40
13052;DHT22;6592;47.484;9.726;2022-08-05T15:45:45;33.70;66.70
13052;DHT22;6592;47.484;9.726;2022-08-05T15:48:27;33.70;65.90
13052;DHT22;6592;47.484;9.726;2022-08-05T15:50:56;33.60;65.60
13052;DHT22;6592;47.484;9.726;2022-08-05T15:53:29;33.50;66.00
13052;DHT22;6592;47.484;9.726;2022-08-05T15:56:17;33.40;66.10
13052;DHT22;6592;47.484;9.726;2022-08-05T15:58:45;33.30;65.80
13052;DHT22;6592;47.484;9.726;2022-08-05T16:01:14;33.20;66.60
13052;DHT22;6592;47.484;9.726;2022-08-05T16:03:45;33.00;65.30
13052;DHT22;6592;47.484;9.726;2022-08-05T16:06:16;32.90;65.70
13052;DHT22;6592;47.484;9.726;2022-08-05T16:08:46;32.70;66.10
13052;DHT22;6592;47.484;9.726;2022-08-05T16:11:16;32.60;66.90
13052;DHT22;6592;47.484;9.726;2022-08-05T16:14:04;32.40;66.70
13052;DHT22;6592;47.484;9.726;2022-08-05T16:16:34;32.30;67.80
13052;DHT22;6592;47.484;9.726;2022-08-05T16:19:04;32.30;67.70
13052;DHT22;6592;47.484;9.726;2022-08-05T16:21:35;32.30;69.80
13052;DHT22;6592;47.484;9.726;2022-08-05T16:24:23;32.20;69.80
13052;DHT22;6592;47.484;9.726;2022-08-05T16:27:07;32.20;71.70
13052;DHT22;6592;47.484;9.726;2022-08-05T16:29:41;32.20;72.50
13052;DHT22;6592;47.484;9.726;2022-08-05T16:32:16;32.30;73.10
13052;DHT22;6592;47.484;9.726;2022-08-05T16:34:56;32.10;75.10
13052;DHT22;6592;47.484;9.726;2022-08-05T16:37:25;32.00;75.60
13052;DHT22;6592;47.484;9.726;2022-08-05T16:40:13;31.90;78.00
13052;DHT22;6592;47.484;9.726;2022-08-05T16:42:54;31.80;76.30
13052;DHT22;6592;47.484;9.726;2022-08-05T16:45:23;31.80;78.00
13052;DHT22;6592;47.484;9.726;2022-08-05T16:48:11;31.70;77.40
13052;DHT22;6592;47.484;9.726;2022-08-05T16:51:00;31.60;77.80